sensor_id;sensor_type;location;lat;lon;timestamp;pressure;altitude;pressure_sealevel;temperature;humidity
64230;BME280;50547;49.498;0.092;2023-04-07T00:00:05;1016.23;;;10.36;82.30
64230;BME280;50547;49.498;0.092;2023-04-07T00:02:35;1016.25;;;10.44;81.76
64230;BME280;50547;49.498;0.092;2023-04-07T00:05:04;1016.31;;;10.44;81.76
64230;BME280;50547;49.498;0.092;2023-04-07T00:07:33;1016.31;;;10.52;81.29
64230;BME280;50547;49.498;0.092;2023-04-07T00:10:03;1016.27;;;10.53;81.75
64230;BME280;50547;49.498;0.092;2023-04-07T00:12:32;1016.33;;;10.54;81.76
64230;BME280;50547;49.498;0.092;2023-04-07T00:15:02;1016.33;;;10.52;81.97
64230;BME280;50547;49.498;0.092;2023-04-07T00:17:31;1016.33;;;10.57;81.77
64230;BME280;50547;49.498;0.092;2023-04-07T00:20:00;1016.33;;;10.40;82.92
64230;BME280;50547;49.498;0.092;2023-04-07T00:22:29;1016.31;;;10.38;83.22
64230;BME280;50547;49.498;0.092;2023-04-07T00:24:58;1016.31;;;10.28;83.59
64230;BME280;50547;49.498;0.092;2023-04-07T00:27:27;1016.25;;;10.31;83.16
64230;BME280;50547;49.498;0.092;2023-04-07T00:29:57;1016.27;;;10.29;83.06
64230;BME280;50547;49.498;0.092;2023-04-07T00:32:26;1016.29;;;10.25;83.28
64230;BME280;50547;49.498;0.092;2023-04-07T00:34:55;1016.35;;;10.25;83.32
64230;BME280;50547;49.498;0.092;2023-04-07T00:37:24;1016.29;;;10.28;83.45
64230;BME280;50547;49.498;0.092;2023-04-07T00:39:53;1016.23;;;10.31;83.38
64230;BME280;50547;49.498;0.092;2023-04-07T00:42:22;1016.21;;;10.25;83.97
64230;BME280;50547;49.498;0.092;2023-04-07T00:44:51;1016.19;;;10.19;84.35
64230;BME280;50547;49.498;0.092;2023-04-07T00:47:20;1016.23;;;10.21;84.05
64230;BME280;50547;49.498;0.092;2023-04-07T00:49:49;1016.16;;;10.14;84.43
64230;BME280;50547;49.498;0.092;2023-04-07T00:52:19;1016.16;;;10.22;83.73
64230;BME280;50547;49.498;0.092;2023-04-07T00:54:48;1016.19;;;10.18;83.77
64230;BME280;50547;49.498;0.092;2023-04-07T00:57:17;1016.21;;;10.19;83.69
64230;BME280;50547;49.498;0.092;2023-04-07T00:59:46;1016.21;;;10.17;83.83
64230;BME280;50547;49.498;0.092;2023-04-07T01:02:17;1016.25;;;10.30;83.22
64230;BME280;50547;49.498;0.092;2023-04-07T01:04:55;1016.25;;;10.28;83.51
64230;BME280;50547;49.498;0.092;2023-04-07T01:07:33;1016.31;;;10.29;83.49
64230;BME280;50547;49.498;0.092;2023-04-07T01:10:05;1016.29;;;10.17;84.32
64230;BME280;50547;49.498;0.092;2023-04-07T01:12:42;1016.25;;;10.30;83.82
64230;BME280;50547;49.498;0.092;2023-04-07T01:15:12;1016.25;;;10.34;83.39
64230;BME280;50547;49.498;0.092;2023-04-07T01:17:45;1016.27;;;10.32;83.61
64230;BME280;50547;49.498;0.092;2023-04-07T01:20:19;1016.27;;;10.18;84.51
64230;BME280;50547;49.498;0.092;2023-04-07T01:22:54;1016.27;;;10.16;84.72
64230;BME280;50547;49.498;0.092;2023-04-07T01:25:38;1016.35;;;10.20;84.14
64230;BME280;50547;49.498;0.092;2023-04-07T01:28:35;1016.39;;;10.12;84.79
64230;BME280;50547;49.498;0.092;2023-04-07T01:31:09;1016.39;;;10.18;84.35
64230;BME280;50547;49.498;0.092;2023-04-07T01:33:42;1016.39;;;10.29;83.69
64230;BME280;50547;49.498;0.092;2023-04-07T01:36:12;1016.41;;;10.13;84.53
64230;BME280;50547;49.498;0.092;2023-04-07T01:38:44;1016.39;;;10.18;84.30
64230;BME280;50547;49.498;0.092;2023-04-07T01:41:10;1016.39;;;10.13;84.56
64230;BME280;50547;49.498;0.092;2023-04-07T01:43:43;1016.33;;;10.16;84.28
64230;BME280;50547;49.498;0.092;2023-04-07T01:46:13;1016.35;;;10.05;84.65
64230;BME280;50547;49.498;0.092;2023-04-07T01:48:43;1016.35;;;10.11;84.02
64230;BME280;50547;49.498;0.092;2023-04-07T01:51:13;1016.39;;;10.08;83.95
64230;BME280;50547;49.498;0.092;2023-04-07T01:53:44;1016.37;;;10.02;84.32
64230;BME280;50547;49.498;0.092;2023-04-07T01:56:14;1016.35;;;10.05;84.31
64230;BME280;50547;49.498;0.092;2023-04-07T01:58:43;1016.39;;;10.18;83.63
64230;BME280;50547;49.498;0.092;2023-04-07T02:01:12;1016.39;;;10.18;83.81
64230;BME280;50547;49.498;0.092;2023-04-07T02:03:59;1016.43;;;10.20;83.86
64230;BME280;50547;49.498;0.092;2023-04-07T02:06:33;1016.41;;;10.12;84.32
64230;BME280;50547;49.498;0.092;2023-04-07T02:09:06;1016.41;;;10.14;84.49
64230;BME280;50547;49.498;0.092;2023-04-07T02:11:39;1016.45;;;10.24;83.95
64230;BME280;50547;49.498;0.092;2023-04-07T02:14:12;1016.51;;;10.24;83.96
64230;BME280;50547;49.498;0.092;2023-04-07T02:16:42;1016.53;;;10.19;84.19
64230;BME280;50547;49.498;0.092;2023-04-07T02:19:11;1016.55;;;10.23;83.79
64230;BME280;50547;49.498;0.092;2023-04-07T02:21:41;1016.49;;;10.29;83.38
64230;BME280;50547;49.498;0.092;2023-04-07T02:24:12;1016.45;;;10.18;84.03
64230;BME280;50547;49.498;0.092;2023-04-07T02:26:41;1016.45;;;10.16;83.90
64230;BME280;50547;49.498;0.092;2023-04-07T02:29:10;1016.43;;;10.12;84.02
64230;BME280;50547;49.498;0.092;2023-04-07T02:31:40;1016.43;;;10.10;83.97
64230;BME280;50547;49.498;0.092;2023-04-07T02:34:09;1016.41;;;9.98;83.77
64230;BME280;50547;49.498;0.092;2023-04-07T02:36:38;1016.43;;;10.02;82.97
64230;BME280;50547;49.498;0.092;2023-04-07T02:39:08;1016.47;;;10.02;82.31
64230;BME280;50547;49.498;0.092;2023-04-07T02:41:37;1016.43;;;10.13;80.84
64230;BME280;50547;49.498;0.092;2023-04-07T02:44:06;1016.47;;;10.03;81.06
64230;BME280;50547;49.498;0.092;2023-04-07T02:46:35;1016.47;;;10.01;80.88
64230;BME280;50547;49.498;0.092;2023-04-07T02:49:05;1016.49;;;10.04;80.43
64230;BME280;50547;49.498;0.092;2023-04-07T02:51:34;1016.51;;;9.98;80.61
64230;BME280;50547;49.498;0.092;2023-04-07T02:54:03;1016.47;;;9.97;80.83
64230;BME280;50547;49.498;0.092;2023-04-07T02:56:32;1016.47;;;9.96;80.68
64230;BME280;50547;49.498;0.092;2023-04-07T02:59:01;1016.45;;;9.83;81.47
64230;BME280;50547;49.498;0.092;2023-04-07T03:01:30;1016.39;;;9.88;81.19
64230;BME280;50547;49.498;0.092;2023-04-07T03:03:59;1016.35;;;9.93;81.17
64230;BME280;50547;49.498;0.092;2023-04-07T03:06:28;1016.37;;;9.91;81.15
64230;BME280;50547;49.498;0.092;2023-04-07T03:08:57;1016.39;;;9.87;81.78
64230;BME280;50547;49.498;0.092;2023-04-07T03:11:26;1016.39;;;9.86;81.53
64230;BME280;50547;49.498;0.092;2023-04-07T03:13:56;1016.39;;;9.81;81.85
64230;BME280;50547;49.498;0.092;2023-04-07T03:16:25;1016.37;;;9.69;82.31
64230;BME280;50547;49.498;0.092;2023-04-07T03:18:54;1016.39;;;9.64;82.29
64230;BME280;50547;49.498;0.092;2023-04-07T03:21:23;1016.35;;;9.69;81.81
64230;BME280;50547;49.498;0.092;2023-04-07T03:23:52;1016.37;;;9.58;82.35
64230;BME280;50547;49.498;0.092;2023-04-07T03:26:22;1016.39;;;9.56;82.30
64230;BME280;50547;49.498;0.092;2023-04-07T03:28:51;1016.35;;;9.63;81.91
64230;BME280;50547;49.498;0.092;2023-04-07T03:31:20;1016.43;;;9.54;82.34
64230;BME280;50547;49.498;0.092;2023-04-07T03:33:49;1016.47;;;9.56;82.23
64230;BME280;50547;49.498;0.092;2023-04-07T03:36:18;1016.51;;;9.51;82.39
64230;BME280;50547;49.498;0.092;2023-04-07T03:38:48;1016.55;;;9.38;83.12
64230;BME280;50547;49.498;0.092;2023-04-07T03:41:17;1016.57;;;9.36;83.06
64230;BME280;50547;49.498;0.092;2023-04-07T03:43:46;1016.51;;;9.38;82.81
64230;BME280;50547;49.498;0.092;2023-04-07T03:46:15;1016.45;;;9.42;82.34
64230;BME280;50547;49.498;0.092;2023-04-07T03:48:44;1016.45;;;9.42;82.38
64230;BME280;50547;49.498;0.092;2023-04-07T03:51:14;1016.45;;;9.39;82.65
64230;BME280;50547;49.498;0.092;2023-04-07T03:53:43;1016.45;;;9.38;82.58
64230;BME280;50547;49.498;0.092;2023-04-07T03:56:12;1016.45;;;9.37;82.38
64230;BME280;50547;49.498;0.092;2023-04-07T03:58:42;1016.41;;;9.34;82.40
64230;BME280;50547;49.498;0.092;2023-04-07T04:01:11;1016.43;;;9.32;82.07
64230;BME280;50547;49.498;0.092;2023-04-07T04:03:40;1016.41;;;9.27;82.47
64230;BME280;50547;49.498;0.092;2023-04-07T04:06:09;1016.39;;;9.19;82.45
64230;BME280;50547;49.498;0.092;2023-04-07T04:08:38;1016.43;;;9.19;82.31
64230;BME280;50547;49.498;0.092;2023-04-07T04:11:07;1016.39;;;9.17;82.00
64230;BME280;50547;49.498;0.092;2023-04-07T04:13:36;1016.35;;;9.08;81.53
64230;BME280;50547;49.498;0.092;2023-04-07T04:16:06;1016.37;;;9.12;81.02
64230;BME280;50547;49.498;0.092;2023-04-07T04:18:36;1016.39;;;9.10;80.42
64230;BME280;50547;49.498;0.092;2023-04-07T04:21:05;1016.39;;;9.10;80.17
64230;BME280;50547;49.498;0.092;2023-04-07T04:23:35;1016.41;;;9.02;80.04
64230;BME280;50547;49.498;0.092;2023-04-07T04:26:04;1016.45;;;9.05;79.69
64230;BME280;50547;49.498;0.092;2023-04-07T04:28:33;1016.49;;;9.02;79.59
64230;BME280;50547;49.498;0.092;2023-04-07T04:31:02;1016.51;;;9.02;79.38
64230;BME280;50547;49.498;0.092;2023-04-07T04:33:31;1016.51;;;9.01;79.17
64230;BME280;50547;49.498;0.092;2023-04-07T04:36:00;1016.53;;;9.04;79.07
64230;BME280;50547;49.498;0.092;2023-04-07T04:38:29;1016.53;;;9.13;77.82
64230;BME280;50547;49.498;0.092;2023-04-07T04:40:58;1016.59;;;9.14;77.78
64230;BME280;50547;49.498;0.092;2023-04-07T04:43:28;1016.57;;;9.04;78.13
64230;BME280;50547;49.498;0.092;2023-04-07T04:45:57;1016.63;;;9.12;77.77
64230;BME280;50547;49.498;0.092;2023-04-07T04:48:26;1016.63;;;9.08;77.69
64230;BME280;50547;49.498;0.092;2023-04-07T04:50:56;1016.66;;;9.01;77.94
64230;BME280;50547;49.498;0.092;2023-04-07T04:53:25;1016.70;;;9.01;78.01
64230;BME280;50547;49.498;0.092;2023-04-07T04:55:54;1016.70;;;9.04;77.69
64230;BME280;50547;49.498;0.092;2023-04-07T04:58:23;1016.70;;;8.99;77.78
64230;BME280;50547;49.498;0.092;2023-04-07T05:00:53;1016.72;;;8.94;77.97
64230;BME280;50547;49.498;0.092;2023-04-07T05:03:22;1016.68;;;8.91;77.91
64230;BME280;50547;49.498;0.092;2023-04-07T05:05:51;1016.74;;;8.89;77.96
64230;BME280;50547;49.498;0.092;2023-04-07T05:08:21;1016.76;;;8.84;77.99
64230;BME280;50547;49.498;0.092;2023-04-07T05:10:50;1016.74;;;8.80;78.13
64230;BME280;50547;49.498;0.092;2023-04-07T05:13:19;1016.76;;;8.82;77.71
64230;BME280;50547;49.498;0.092;2023-04-07T05:15:48;1016.80;;;8.82;77.75
64230;BME280;50547;49.498;0.092;2023-04-07T05:18:17;1016.80;;;8.82;77.70
64230;BME280;50547;49.498;0.092;2023-04-07T05:20:47;1016.84;;;8.79;77.67
64230;BME280;50547;49.498;0.092;2023-04-07T05:23:17;1016.86;;;8.77;77.77
64230;BME280;50547;49.498;0.092;2023-04-07T05:25:46;1016.84;;;8.82;77.49
64230;BME280;50547;49.498;0.092;2023-04-07T05:28:15;1016.82;;;8.79;77.59
64230;BME280;50547;49.498;0.092;2023-04-07T05:30:44;1016.84;;;8.86;77.20
64230;BME280;50547;49.498;0.092;2023-04-07T05:33:14;1016.84;;;8.87;77.17
64230;BME280;50547;49.498;0.092;2023-04-07T05:35:43;1016.86;;;8.82;77.43
64230;BME280;50547;49.498;0.092;2023-04-07T05:38:12;1016.86;;;8.89;77.22
64230;BME280;50547;49.498;0.092;2023-04-07T05:40:41;1016.84;;;9.04;76.65
64230;BME280;50547;49.498;0.092;2023-04-07T05:43:10;1016.88;;;9.18;76.28
64230;BME280;50547;49.498;0.092;2023-04-07T05:45:39;1016.90;;;9.17;76.20
64230;BME280;50547;49.498;0.092;2023-04-07T05:48:09;1016.96;;;9.36;75.57
64230;BME280;50547;49.498;0.092;2023-04-07T05:50:38;1016.96;;;9.43;75.25
64230;BME280;50547;49.498;0.092;2023-04-07T05:53:07;1016.96;;;9.55;75.12
64230;BME280;50547;49.498;0.092;2023-04-07T05:55:36;1017.02;;;9.63;74.69
64230;BME280;50547;49.498;0.092;2023-04-07T05:58:05;1017.06;;;9.62;75.05
64230;BME280;50547;49.498;0.092;2023-04-07T06:00:34;1017.00;;;9.74;74.60
64230;BME280;50547;49.498;0.092;2023-04-07T06:03:03;1017.04;;;9.79;74.46
64230;BME280;50547;49.498;0.092;2023-04-07T06:05:32;1017.04;;;9.80;74.51
64230;BME280;50547;49.498;0.092;2023-04-07T06:08:01;1017.04;;;9.90;74.03
64230;BME280;50547;49.498;0.092;2023-04-07T06:10:31;1017.08;;;9.97;74.03
64230;BME280;50547;49.498;0.092;2023-04-07T06:13:00;1017.11;;;9.84;74.50
64230;BME280;50547;49.498;0.092;2023-04-07T06:15:29;1017.15;;;9.66;75.65
64230;BME280;50547;49.498;0.092;2023-04-07T06:17:58;1017.13;;;9.80;75.02
64230;BME280;50547;49.498;0.092;2023-04-07T06:20:27;1017.13;;;10.14;73.53
64230;BME280;50547;49.498;0.092;2023-04-07T06:22:54;1017.13;;;10.24;73.43
64230;BME280;50547;49.498;0.092;2023-04-07T06:25:23;1017.17;;;10.64;71.96
64230;BME280;50547;49.498;0.092;2023-04-07T06:27:52;1017.15;;;10.51;72.49
64230;BME280;50547;49.498;0.092;2023-04-07T06:30:22;1017.15;;;10.51;72.37
64230;BME280;50547;49.498;0.092;2023-04-07T06:32:51;1017.13;;;10.52;72.53
64230;BME280;50547;49.498;0.092;2023-04-07T06:35:20;1017.15;;;10.03;74.99
64230;BME280;50547;49.498;0.092;2023-04-07T06:37:49;1017.21;;;9.96;75.37
64230;BME280;50547;49.498;0.092;2023-04-07T06:40:18;1017.23;;;10.03;74.95
64230;BME280;50547;49.498;0.092;2023-04-07T06:42:48;1017.23;;;9.97;75.20
64230;BME280;50547;49.498;0.092;2023-04-07T06:45:14;1017.27;;;10.08;74.83
64230;BME280;50547;49.498;0.092;2023-04-07T06:47:43;1017.31;;;10.10;74.36
64230;BME280;50547;49.498;0.092;2023-04-07T06:50:12;1017.31;;;10.16;74.82
64230;BME280;50547;49.498;0.092;2023-04-07T06:52:37;1017.37;;;10.20;74.55
64230;BME280;50547;49.498;0.092;2023-04-07T06:55:08;1017.39;;;10.18;74.78
64230;BME280;50547;49.498;0.092;2023-04-07T06:57:37;1017.45;;;10.30;74.73
64230;BME280;50547;49.498;0.092;2023-04-07T07:00:12;1017.49;;;10.23;74.73
64230;BME280;50547;49.498;0.092;2023-04-07T07:02:38;1017.53;;;10.08;75.97
64230;BME280;50547;49.498;0.092;2023-04-07T07:05:07;1017.51;;;10.16;75.67
64230;BME280;50547;49.498;0.092;2023-04-07T07:07:36;1017.60;;;10.04;75.89
64230;BME280;50547;49.498;0.092;2023-04-07T07:10:08;1017.58;;;10.22;74.84
64230;BME280;50547;49.498;0.092;2023-04-07T07:13:02;1017.60;;;10.25;74.79
64230;BME280;50547;49.498;0.092;2023-04-07T07:15:30;1017.68;;;10.01;76.06
64230;BME280;50547;49.498;0.092;2023-04-07T07:17:59;1017.70;;;9.87;76.80
64230;BME280;50547;49.498;0.092;2023-04-07T07:20:26;1017.72;;;9.88;76.71
64230;BME280;50547;49.498;0.092;2023-04-07T07:22:55;1017.76;;;9.77;77.12
64230;BME280;50547;49.498;0.092;2023-04-07T07:25:24;1017.78;;;10.05;75.93
64230;BME280;50547;49.498;0.092;2023-04-07T07:27:53;1017.76;;;10.08;75.59
64230;BME280;50547;49.498;0.092;2023-04-07T07:30:23;1017.80;;;10.01;76.03
64230;BME280;50547;49.498;0.092;2023-04-07T07:32:50;1017.86;;;9.99;76.17
64230;BME280;50547;49.498;0.092;2023-04-07T07:35:20;1017.86;;;9.93;76.68
64230;BME280;50547;49.498;0.092;2023-04-07T07:37:45;1017.84;;;9.85;77.03
64230;BME280;50547;49.498;0.092;2023-04-07T07:40:14;1017.82;;;9.99;76.34
64230;BME280;50547;49.498;0.092;2023-04-07T07:42:44;1017.80;;;10.22;75.57
64230;BME280;50547;49.498;0.092;2023-04-07T07:45:14;1017.80;;;10.28;75.78
64230;BME280;50547;49.498;0.092;2023-04-07T07:47:43;1017.88;;;10.37;75.00
64230;BME280;50547;49.498;0.092;2023-04-07T07:50:12;1017.88;;;10.13;75.72
64230;BME280;50547;49.498;0.092;2023-04-07T07:52:38;1017.84;;;10.22;75.85
64230;BME280;50547;49.498;0.092;2023-04-07T07:55:07;1017.82;;;10.67;74.51
64230;BME280;50547;49.498;0.092;2023-04-07T07:57:36;1017.84;;;10.52;74.98
64230;BME280;50547;49.498;0.092;2023-04-07T08:00:07;1017.88;;;10.55;74.78
64230;BME280;50547;49.498;0.092;2023-04-07T08:02:49;1017.88;;;10.81;73.02
64230;BME280;50547;49.498;0.092;2023-04-07T08:05:18;1017.92;;;10.70;74.41
64230;BME280;50547;49.498;0.092;2023-04-07T08:07:47;1017.88;;;10.79;74.48
64230;BME280;50547;49.498;0.092;2023-04-07T08:10:17;1017.92;;;11.19;72.76
64230;BME280;50547;49.498;0.092;2023-04-07T08:12:46;1017.90;;;10.98;73.52
64230;BME280;50547;49.498;0.092;2023-04-07T08:15:15;1017.94;;;10.95;73.50
64230;BME280;50547;49.498;0.092;2023-04-07T08:17:44;1018.03;;;10.86;74.92
64230;BME280;50547;49.498;0.092;2023-04-07T08:20:13;1018.01;;;10.96;74.38
64230;BME280;50547;49.498;0.092;2023-04-07T08:22:43;1018.03;;;11.04;73.07
64230;BME280;50547;49.498;0.092;2023-04-07T08:25:12;1018.11;;;11.25;72.17
64230;BME280;50547;49.498;0.092;2023-04-07T08:27:41;1018.05;;;11.00;73.33
64230;BME280;50547;49.498;0.092;2023-04-07T08:30:11;1018.07;;;11.07;73.21
64230;BME280;50547;49.498;0.092;2023-04-07T08:32:42;1018.05;;;11.45;72.12
64230;BME280;50547;49.498;0.092;2023-04-07T08:35:12;1018.11;;;11.55;71.16
64230;BME280;50547;49.498;0.092;2023-04-07T08:37:41;1018.09;;;11.66;71.00
64230;BME280;50547;49.498;0.092;2023-04-07T08:40:11;1018.11;;;10.93;74.54
64230;BME280;50547;49.498;0.092;2023-04-07T08:42:42;1018.07;;;10.66;76.47
64230;BME280;50547;49.498;0.092;2023-04-07T08:45:16;1018.07;;;11.03;74.03
64230;BME280;50547;49.498;0.092;2023-04-07T08:47:46;1018.09;;;11.20;73.04
64230;BME280;50547;49.498;0.092;2023-04-07T08:50:18;1018.09;;;10.71;73.95
64230;BME280;50547;49.498;0.092;2023-04-07T08:52:49;1018.09;;;10.85;73.85
64230;BME280;50547;49.498;0.092;2023-04-07T08:55:21;1018.09;;;11.35;71.72
64230;BME280;50547;49.498;0.092;2023-04-07T08:57:51;1018.07;;;10.98;72.04
64230;BME280;50547;49.498;0.092;2023-04-07T09:00:20;1018.09;;;10.74;72.79
64230;BME280;50547;49.498;0.092;2023-04-07T09:02:50;1018.13;;;11.09;71.03
64230;BME280;50547;49.498;0.092;2023-04-07T09:05:19;1018.07;;;11.52;68.99
64230;BME280;50547;49.498;0.092;2023-04-07T09:07:49;1018.13;;;11.69;69.26
64230;BME280;50547;49.498;0.092;2023-04-07T09:10:18;1018.13;;;11.98;68.80
64230;BME280;50547;49.498;0.092;2023-04-07T09:12:47;1018.11;;;12.08;68.84
64230;BME280;50547;49.498;0.092;2023-04-07T09:15:17;1018.15;;;12.25;69.14
64230;BME280;50547;49.498;0.092;2023-04-07T09:17:47;1018.15;;;11.67;71.29
64230;BME280;50547;49.498;0.092;2023-04-07T09:20:16;1018.15;;;11.63;71.49
64230;BME280;50547;49.498;0.092;2023-04-07T09:22:45;1018.19;;;11.70;70.27
64230;BME280;50547;49.498;0.092;2023-04-07T09:25:16;1018.19;;;11.68;70.36
64230;BME280;50547;49.498;0.092;2023-04-07T09:27:54;1018.11;;;12.30;67.59
64230;BME280;50547;49.498;0.092;2023-04-07T09:30:24;1018.11;;;12.54;67.07
64230;BME280;50547;49.498;0.092;2023-04-07T09:32:54;1018.09;;;12.89;66.60
64230;BME280;50547;49.498;0.092;2023-04-07T09:35:23;1018.09;;;12.82;65.82
64230;BME280;50547;49.498;0.092;2023-04-07T09:38:01;1018.09;;;12.50;67.32
64230;BME280;50547;49.498;0.092;2023-04-07T09:40:31;1018.15;;;12.32;68.08
64230;BME280;50547;49.498;0.092;2023-04-07T09:43:03;1018.13;;;12.43;69.10
64230;BME280;50547;49.498;0.092;2023-04-07T09:45:32;1018.13;;;12.40;67.82
64230;BME280;50547;49.498;0.092;2023-04-07T09:48:04;1018.09;;;12.79;65.85
64230;BME280;50547;49.498;0.092;2023-04-07T09:50:35;1018.15;;;12.54;66.20
64230;BME280;50547;49.498;0.092;2023-04-07T09:53:04;1018.15;;;12.55;66.72
64230;BME280;50547;49.498;0.092;2023-04-07T09:55:34;1018.21;;;12.62;66.81
64230;BME280;50547;49.498;0.092;2023-04-07T09:58:05;1018.23;;;12.41;66.60
64230;BME280;50547;49.498;0.092;2023-04-07T10:00:35;1018.19;;;12.62;65.11
64230;BME280;50547;49.498;0.092;2023-04-07T10:03:04;1018.17;;;13.12;65.03
64230;BME280;50547;49.498;0.092;2023-04-07T10:05:36;1018.23;;;13.78;63.17
64230;BME280;50547;49.498;0.092;2023-04-07T10:08:06;1018.23;;;13.72;62.74
64230;BME280;50547;49.498;0.092;2023-04-07T10:10:40;1018.19;;;14.03;62.26
64230;BME280;50547;49.498;0.092;2023-04-07T10:13:10;1018.25;;;13.90;63.84
64230;BME280;50547;49.498;0.092;2023-04-07T10:15:40;1018.27;;;13.58;64.38
64230;BME280;50547;49.498;0.092;2023-04-07T10:18:09;1018.25;;;13.70;65.04
64230;BME280;50547;49.498;0.092;2023-04-07T10:20:40;1018.36;;;13.68;63.26
64230;BME280;50547;49.498;0.092;2023-04-07T10:23:20;1018.25;;;12.80;66.00
64230;BME280;50547;49.498;0.092;2023-04-07T10:25:51;1018.27;;;13.20;63.20
64230;BME280;50547;49.498;0.092;2023-04-07T10:28:24;1018.36;;;13.42;62.45
64230;BME280;50547;49.498;0.092;2023-04-07T10:30:54;1018.25;;;13.02;63.69
64230;BME280;50547;49.498;0.092;2023-04-07T10:33:56;1018.25;;;13.28;63.42
64230;BME280;50547;49.498;0.092;2023-04-07T10:36:25;1018.25;;;13.77;61.38
64230;BME280;50547;49.498;0.092;2023-04-07T10:39:26;1018.27;;;13.64;60.63
64230;BME280;50547;49.498;0.092;2023-04-07T10:41:56;1018.23;;;13.49;61.93
64230;BME280;50547;49.498;0.092;2023-04-07T10:44:57;1018.21;;;13.75;61.07
64230;BME280;50547;49.498;0.092;2023-04-07T10:47:26;1018.23;;;13.74;61.72
64230;BME280;50547;49.498;0.092;2023-04-07T10:50:27;1018.23;;;13.62;60.73
64230;BME280;50547;49.498;0.092;2023-04-07T10:53:05;1018.19;;;14.26;59.28
64230;BME280;50547;49.498;0.092;2023-04-07T10:55:36;1018.15;;;13.11;64.52
64230;BME280;50547;49.498;0.092;2023-04-07T10:58:14;1018.13;;;12.85;66.45
64230;BME280;50547;49.498;0.092;2023-04-07T11:01:17;1018.15;;;13.24;64.46
64230;BME280;50547;49.498;0.092;2023-04-07T11:03:57;1018.19;;;13.66;64.18
64230;BME280;50547;49.498;0.092;2023-04-07T11:06:26;1018.11;;;13.54;64.50
64230;BME280;50547;49.498;0.092;2023-04-07T11:08:55;1018.19;;;13.39;67.29
64230;BME280;50547;49.498;0.092;2023-04-07T11:11:40;1018.17;;;13.23;68.05
64230;BME280;50547;49.498;0.092;2023-04-07T11:14:09;1018.19;;;13.02;69.51
64230;BME280;50547;49.498;0.092;2023-04-07T11:16:41;1018.13;;;13.16;68.74
64230;BME280;50547;49.498;0.092;2023-04-07T11:19:10;1018.15;;;13.31;68.08
64230;BME280;50547;49.498;0.092;2023-04-07T11:21:40;1018.15;;;12.72;70.28
64230;BME280;50547;49.498;0.092;2023-04-07T11:24:09;1018.21;;;12.91;69.50
64230;BME280;50547;49.498;0.092;2023-04-07T11:26:39;1018.17;;;13.16;68.42
64230;BME280;50547;49.498;0.092;2023-04-07T11:29:09;1018.17;;;13.21;68.10
64230;BME280;50547;49.498;0.092;2023-04-07T11:31:39;1018.19;;;13.73;65.81
64230;BME280;50547;49.498;0.092;2023-04-07T11:34:08;1018.17;;;13.26;67.33
64230;BME280;50547;49.498;0.092;2023-04-07T11:36:40;1018.07;;;13.22;69.18
64230;BME280;50547;49.498;0.092;2023-04-07T11:39:17;1018.19;;;12.41;72.93
64230;BME280;50547;49.498;0.092;2023-04-07T11:41:48;1018.15;;;12.45;71.55
64230;BME280;50547;49.498;0.092;2023-04-07T11:44:18;1018.17;;;12.55;71.24
64230;BME280;50547;49.498;0.092;2023-04-07T11:46:56;1018.21;;;12.80;69.78
64230;BME280;50547;49.498;0.092;2023-04-07T11:49:26;1018.25;;;12.99;68.33
64230;BME280;50547;49.498;0.092;2023-04-07T11:51:58;1018.36;;;13.54;66.40
64230;BME280;50547;49.498;0.092;2023-04-07T11:54:38;1018.23;;;13.38;68.06
64230;BME280;50547;49.498;0.092;2023-04-07T11:57:08;1018.25;;;12.87;71.86
64230;BME280;50547;49.498;0.092;2023-04-07T11:59:38;1018.23;;;12.93;71.44
64230;BME280;50547;49.498;0.092;2023-04-07T12:02:07;1018.27;;;12.74;71.90
64230;BME280;50547;49.498;0.092;2023-04-07T12:04:36;1018.36;;;13.16;69.59
64230;BME280;50547;49.498;0.092;2023-04-07T12:07:06;1018.27;;;13.46;68.47
64230;BME280;50547;49.498;0.092;2023-04-07T12:09:36;1018.25;;;13.00;71.35
64230;BME280;50547;49.498;0.092;2023-04-07T12:12:06;1018.15;;;12.72;72.58
64230;BME280;50547;49.498;0.092;2023-04-07T12:14:36;1018.25;;;12.34;73.86
64230;BME280;50547;49.498;0.092;2023-04-07T12:17:05;1018.27;;;12.27;74.15
64230;BME280;50547;49.498;0.092;2023-04-07T12:19:34;1018.40;;;12.08;74.08
64230;BME280;50547;49.498;0.092;2023-04-07T12:22:03;1018.43;;;11.96;74.16
64230;BME280;50547;49.498;0.092;2023-04-07T12:24:33;1018.45;;;11.79;74.33
64230;BME280;50547;49.498;0.092;2023-04-07T12:27:02;1018.38;;;11.65;74.84
64230;BME280;50547;49.498;0.092;2023-04-07T12:29:32;1018.45;;;11.61;74.41
64230;BME280;50547;49.498;0.092;2023-04-07T12:32:01;1018.45;;;11.54;74.93
64230;BME280;50547;49.498;0.092;2023-04-07T12:34:30;1018.25;;;11.97;72.62
64230;BME280;50547;49.498;0.092;2023-04-07T12:36:59;1018.45;;;12.03;72.09
64230;BME280;50547;49.498;0.092;2023-04-07T12:39:28;1018.49;;;11.98;72.90
64230;BME280;50547;49.498;0.092;2023-04-07T12:41:57;1018.47;;;12.11;72.40
64230;BME280;50547;49.498;0.092;2023-04-07T12:44:26;1018.43;;;11.99;71.42
64230;BME280;50547;49.498;0.092;2023-04-07T12:46:55;1018.51;;;11.76;72.73
64230;BME280;50547;49.498;0.092;2023-04-07T12:49:23;1018.49;;;11.76;74.29
64230;BME280;50547;49.498;0.092;2023-04-07T12:51:52;1018.45;;;11.68;74.17
64230;BME280;50547;49.498;0.092;2023-04-07T12:54:21;1018.49;;;11.78;74.47
64230;BME280;50547;49.498;0.092;2023-04-07T12:56:48;1018.49;;;12.07;72.36
64230;BME280;50547;49.498;0.092;2023-04-07T12:59:17;1018.43;;;12.49;71.36
64230;BME280;50547;49.498;0.092;2023-04-07T13:01:46;1018.45;;;12.42;70.99
64230;BME280;50547;49.498;0.092;2023-04-07T13:04:16;1018.47;;;12.34;70.80
64230;BME280;50547;49.498;0.092;2023-04-07T13:06:45;1018.40;;;12.65;70.34
64230;BME280;50547;49.498;0.092;2023-04-07T13:09:14;1018.45;;;12.58;70.37
64230;BME280;50547;49.498;0.092;2023-04-07T13:11:43;1018.45;;;12.29;70.47
64230;BME280;50547;49.498;0.092;2023-04-07T13:14:12;1018.43;;;12.37;70.99
64230;BME280;50547;49.498;0.092;2023-04-07T13:16:42;1018.40;;;12.65;68.80
64230;BME280;50547;49.498;0.092;2023-04-07T13:19:11;1018.40;;;12.81;68.05
64230;BME280;50547;49.498;0.092;2023-04-07T13:21:40;1018.38;;;12.89;67.33
64230;BME280;50547;49.498;0.092;2023-04-07T13:24:09;1018.40;;;12.94;67.05
64230;BME280;50547;49.498;0.092;2023-04-07T13:26:38;1018.40;;;12.73;67.16
64230;BME280;50547;49.498;0.092;2023-04-07T13:29:07;1018.36;;;13.12;66.83
64230;BME280;50547;49.498;0.092;2023-04-07T13:31:36;1018.27;;;12.78;68.68